Terminal Aerodrome Forecast
Issued by NWS Upton, NY

Home | Current Version | Previous Version | Text Only | Print | Product List | Glossary On
Versions: 1 2 3 4 5 6 7 8 9 10 11 12 13 14 15 16 17 18 19 20 21 22 23 24 25 26 27 28 29 30 31 32 33 34 35 36 37 38 39 40 41 42 43 44 45 46 47 48 49 50
000
FTUS41 KOKX 182005 AAA
TAFJFK
TAF AMD
KJFK 182005Z 1820/1924 23006KT P6SM SCT015 BKN025
     FM182300 28007KT P6SM FEW035 SCT250
     FM190500 34007KT P6SM BKN250
     FM191500 06008KT P6SM SCT040 BKN150
     FM191800 08010KT P6SM BKN040 BKN150
     FM192100 09012KT 3SM -SN SCT010 BKN020 OVC040
      TEMPO 1922/1924 1SM -SN BKN010 OVC020=

USA.gov is the U.S. government's official web portal to all federal, state and local government web resources and services.